Friday, January 19, 2018, 10:39 AM EST
Back to Local

KEWR, Newark International Airport

Location: Elizabeth, NJ, United States Lat: 40.683
Local Time: 10:39 AM EST (15:39 GMT) Lon: -74.167
Time Zone: US/Eastern Elev: 16 ft

Show me the last for .
Show Coded

Time T Td Feel RH Dir Speed Gust Alt SLP Vis Weather Sky Remarks
2018-01-19 09:51 30 14 22 50 220° 8 - 30.09 30.09 10 OVC220 None
2018-01-19 08:51 28 14 19 55 240° 9 - 30.09 30.08 10 BKN220 None
2018-01-19 07:51 24 14 17 64 220° 6 - 30.07 30.07 10 BKN250 None
2018-01-19 06:51 25 13 16 59 250° 8 - 30.07 30.07 10 SCT250 6-hr Min Temp (7am): 19.9°F
6-hr Max Temp (7am): 25.0°F
2018-01-19 05:51 23 13 14 64 250° 8 - 30.07 30.07 10 SCT250 None
2018-01-19 04:51 22 13 14 67 230° 6 - 30.07 30.06 10 CLR None
2018-01-19 03:51 22 13 16 67 270° 5 - 30.07 30.07 10 CLR None
2018-01-19 02:51 23 13 16 64 260° 6 - 30.06 30.05 10 CLR None
2018-01-19 01:51 23 12 17 62 270° 5 - 30.05 30.05 10 CLR None
2018-01-19 00:51 25 11 18 54 260° 6 - 30.06 30.06 10 CLR 6-hr Min Temp (1am): 24.1°F
6-hr Max Temp (1am): 30.0°F
2018-01-18 23:51 26 12 18 54 280° 7 - 30.08 30.08 10 CLR 24-hr Min Temp (12am): 17.1°F
24-hr Max Temp (12am): 35.1°F
2018-01-18 22:51 26 12 17 54 310° 9 - 30.09 30.08 10 CLR None
2018-01-18 21:51 27 12 18 52 290° 9 - 30.10 30.09 10 CLR None
2018-01-18 20:51 28 12 19 50 280° 9 - 30.08 30.07 10 CLR None
2018-01-18 19:51 29 11 17 46 300° 9 17 30.04 30.04 10 CLR None
2018-01-18 18:51 29 11 20 46 280° 10 - 30.04 30.03 10 CLR 6-hr Min Temp (7pm): 28.9°F
6-hr Max Temp (7pm): 35.1°F
2018-01-18 17:51 30 11 18 44 290° 12 20 30.01 30.01 10 CLR None
2018-01-18 16:51 31 11 17 42 300° 12 25 29.96 29.96 10 CLR None
2018-01-18 15:51 34 10 21 36 290° 14 25 29.95 29.95 10 CLR None
2018-01-18 14:51 34 9 22 34 290° 15 24 29.94 29.93 10 CLR None
2018-01-18 13:51 33 7 23 32 310° 16 - 29.94 29.94 10 FEW250 None
2018-01-18 12:51 32 8 19 35 310° 16 22 29.98 29.97 10 FEW250 6-hr Min Temp (1pm): 18.0°F
6-hr Max Temp (1pm): 32.0°F
2018-01-18 11:51 30 6 19 35 310° 15 - 30.01 30.01 10 FEW250 None
2018-01-18 10:51 29 7 17 38 300° 16 - 30.06 30.06 10 FEW250 None

Support USWX by starting your Amazon purchase here.